Rsc-4 — RSC-4 — position and weather

sailwx.info

Track history (hours):
 
Tides and Currents Weather Stations Pressure Air Temp Water Temp Dewpoint Dewpoint Depression Visibility Wind Speed Wind Dir Waves Ship Positions

Rsc-4

Last reported at 2017-Sep-21 03:52 UTC. Time now 2017-Sep-21 12:13 UTC.
Position N 33°01' W 118°33'.

Length 35 m; draft 2.5 m.

Type: Military. MMSI: 369970764.

Date/timePositionNaut miles runAvg speedWind from/ knotsBaromVisibWave heightAir tempDewpointWater temp
2017-Sep-21 03:52N 33°01' W 118°33'8 0.3
2017-Sep-20 01:41N 33°01' W 118°43'4 3.8
2017-Sep-20 00:35N 32°57' W 118°42'2 4.0
2017-Sep-20 00:07N 32°57' W 118°44'0 4.3
2017-Sep-20 00:00N 32°57' W 118°44'1 2.1
2017-Sep-19 23:20N 32°57' W 118°43'813.7
2017-Sep-19 22:43N 33°05' W 118°39'2310.5
2017-Sep-19 20:33N 32°55' W 118°15'114.7
2017-Sep-19 20:30N 32°54' W 118°14'714.5
2017-Sep-19 20:00N 32°52' W 118°06'713.9
2017-Sep-19 19:31N 32°50' W 117°58'714.3
2017-Sep-19 19:00N 32°47' W 117°50'714.3
2017-Sep-19 18:30N 32°44' W 117°43'714.2
2017-Sep-19 18:00N 32°42' W 117°35'714.3
2017-Sep-19 17:30N 32°39' W 117°27'713.8
2017-Sep-19 17:01N 32°37' W 117°19'5 9.5
2017-Sep-19 16:30N 32°40' W 117°14'2 3.4
2017-Sep-19 15:59N 32°41' W 117°14'0 0.0
2017-Sep-19 15:29N 32°41' W 117°14'0 0.0
2017-Sep-19 14:59N 32°41' W 117°14'0 0.0
2017-Sep-19 14:29N 32°41' W 117°14'0 0.0
2017-Sep-19 13:59N 32°41' W 117°14'0 0.0
2017-Sep-19 13:29N 32°41' W 117°14'0 0.0
2017-Sep-19 12:59N 32°41' W 117°14'0 0.0
2017-Sep-19 12:29N 32°41' W 117°14'0 0.0
2017-Sep-19 11:59N 32°41' W 117°14'0 0.0
2017-Sep-19 11:29N 32°41' W 117°14'0 0.0
2017-Sep-19 10:56N 32°41' W 117°14'0 0.0
2017-Sep-19 10:29N 32°41' W 117°14'0 0.0
2017-Sep-19 09:59N 32°41' W 117°14'0 0.0
2017-Sep-19 09:29N 32°41' W 117°14'0 0.0
2017-Sep-19 08:59N 32°41' W 117°14'0 0.0
2017-Sep-19 08:29N 32°41' W 117°14'0 0.0
2017-Sep-19 07:59N 32°41' W 117°14'0 0.0
2017-Sep-19 07:29N 32°41' W 117°14'0 0.0
2017-Sep-19 06:59N 32°41' W 117°14'0 0.0
2017-Sep-19 06:29N 32°41' W 117°14'0 0.0
2017-Sep-19 05:59N 32°41' W 117°14'0 0.0
2017-Sep-19 05:29N 32°41' W 117°14'0 0.0
2017-Sep-19 04:59N 32°41' W 117°14'0 0.0
2017-Sep-19 04:29N 32°41' W 117°14'0 0.0
2017-Sep-19 03:59N 32°41' W 117°14'0 0.0
2017-Sep-19 03:29N 32°41' W 117°14'0 0.0
2017-Sep-19 02:59N 32°41' W 117°14'0 0.0
2017-Sep-19 02:29N 32°41' W 117°14'0 0.0
2017-Sep-19 01:59N 32°41' W 117°14'0 0.0
2017-Sep-19 01:29N 32°41' W 117°14'0 0.0
2017-Sep-19 00:59N 32°41' W 117°14'0 0.0
2017-Sep-19 00:29N 32°41' W 117°14'0 0.0
2017-Sep-18 23:59N 32°41' W 117°14'0 0.0
2017-Sep-18 23:26N 32°41' W 117°14'0 0.0
2017-Sep-18 22:59N 32°41' W 117°14'0 0.0
2017-Sep-18 22:29N 32°41' W 117°14'0 0.0
2017-Sep-18 21:59N 32°41' W 117°14'0 0.0
2017-Sep-18 21:29N 32°41' W 117°14'0 0.0
2017-Sep-18 20:59N 32°41' W 117°14'0 0.0
2017-Sep-18 20:29N 32°41' W 117°14'0 0.0
2017-Sep-18 19:59N 32°41' W 117°14'0 0.0
2017-Sep-18 19:26N 32°41' W 117°14'0 0.0
2017-Sep-18 18:59N 32°41' W 117°14'0 0.0
2017-Sep-18 18:26N 32°41' W 117°14'0 0.0
2017-Sep-18 17:59N 32°41' W 117°14'0 0.0
2017-Sep-18 17:29N 32°41' W 117°14'0 0.0
2017-Sep-18 16:59N 32°41' W 117°14'0 0.0
2017-Sep-18 16:29N 32°41' W 117°14'0 0.0
2017-Sep-18 15:59N 32°41' W 117°14'0 0.0
2017-Sep-18 15:29N 32°41' W 117°14'0 0.0
2017-Sep-18 14:59N 32°41' W 117°14'0 0.0
2017-Sep-18 14:29N 32°41' W 117°14'0 0.0
2017-Sep-18 13:59N 32°41' W 117°14'0 0.1
2017-Sep-18 13:31N 32°41' W 117°14'0 0.1
2017-Sep-18 13:00N 32°41' W 117°14'0 0.0
2017-Sep-18 12:30N 32°41' W 117°14'0 0.0
2017-Sep-18 12:00N 32°41' W 117°14'0 0.0
2017-Sep-18 11:27N 32°41' W 117°14'0 0.0
2017-Sep-18 11:00N 32°41' W 117°14'0 0.0
2017-Sep-18 10:30N 32°41' W 117°14'0 0.0
2017-Sep-18 10:00N 32°41' W 117°14'0 0.0
2017-Sep-18 09:30N 32°41' W 117°14'0 0.0
2017-Sep-18 09:00N 32°41' W 117°14'0 0.0
2017-Sep-18 08:27N 32°41' W 117°14'0 0.0
2017-Sep-18 08:00N 32°41' W 117°14'0 0.0
2017-Sep-18 07:30N 32°41' W 117°14'0 0.0
2017-Sep-18 07:00N 32°41' W 117°14'0 0.0
2017-Sep-18 06:30N 32°41' W 117°14'0 0.0
2017-Sep-18 06:00N 32°41' W 117°14'0 0.0
2017-Sep-18 05:30N 32°41' W 117°14'0 0.0
2017-Sep-18 05:00N 32°41' W 117°14'0 0.0
2017-Sep-18 04:30N 32°41' W 117°14'0 0.0
2017-Sep-18 04:00N 32°41' W 117°14'0 0.0
2017-Sep-18 03:30N 32°41' W 117°14'0 0.0
2017-Sep-18 03:00N 32°41' W 117°14'0 0.0
2017-Sep-18 02:30N 32°41' W 117°14'0 0.0
2017-Sep-18 02:00N 32°41' W 117°14'0 0.0
2017-Sep-18 01:30N 32°41' W 117°14'0 0.0
2017-Sep-18 00:57N 32°41' W 117°14'0 0.0
2017-Sep-18 00:30N 32°41' W 117°14'0 0.0
2017-Sep-17 23:57N 32°41' W 117°14'0 0.0
2017-Sep-17 23:30N 32°41' W 117°14'0 0.0
2017-Sep-17 23:00N 32°41' W 117°14'0 0.0
2017-Sep-17 22:27N 32°41' W 117°14'0 0.0
2017-Sep-17 22:00N 32°41' W 117°14'0 0.0
2017-Sep-17 21:30N 32°41' W 117°14'0 0.0
2017-Sep-17 21:00N 32°41' W 117°14'0 0.0
2017-Sep-17 20:30N 32°41' W 117°14'0 0.0
2017-Sep-17 20:00N 32°41' W 117°14'0 0.0
2017-Sep-17 19:30N 32°41' W 117°14'0 0.0
2017-Sep-17 19:00N 32°41' W 117°14'0 0.0
2017-Sep-17 18:24N 32°41' W 117°14'0 0.0
2017-Sep-17 18:00N 32°41' W 117°14'0 0.0
2017-Sep-17 17:30N 32°41' W 117°14'0 0.0
2017-Sep-17 17:00N 32°41' W 117°14'0 0.0
2017-Sep-17 16:30N 32°41' W 117°14'0 0.0
2017-Sep-17 15:57N 32°41' W 117°14'0 0.0
2017-Sep-17 15:30N 32°41' W 117°14'0 0.0
2017-Sep-17 15:00N 32°41' W 117°14'0 0.0
2017-Sep-17 14:30N 32°41' W 117°14'0 0.0
2017-Sep-17 14:00N 32°41' W 117°14'0 0.0
2017-Sep-17 13:30N 32°41' W 117°14'0 0.0
2017-Sep-17 13:00N 32°41' W 117°14'0 0.0
2017-Sep-17 12:30N 32°41' W 117°14'0 0.0
2017-Sep-17 11:57N 32°41' W 117°14'0 0.0
2017-Sep-17 11:30N 32°41' W 117°14'0 0.0
2017-Sep-17 11:00N 32°41' W 117°14'0 0.0
2017-Sep-17 10:30N 32°41' W 117°14'0 0.0
2017-Sep-17 10:00N 32°41' W 117°14'0 0.0
2017-Sep-17 09:27N 32°41' W 117°14'0 0.0
2017-Sep-17 09:00N 32°41' W 117°14'0 0.0
2017-Sep-17 08:30N 32°41' W 117°14'0 0.0
2017-Sep-17 08:00N 32°41' W 117°14'0 0.0
2017-Sep-17 07:30N 32°41' W 117°14'0 0.0
2017-Sep-17 07:00N 32°41' W 117°14'0 0.0
2017-Sep-17 06:30N 32°41' W 117°14'0 0.0
2017-Sep-17 06:00N 32°41' W 117°14'0 0.0
2017-Sep-17 05:30N 32°41' W 117°14'0 0.0
2017-Sep-17 05:00N 32°41' W 117°14'0 0.0
2017-Sep-17 04:30N 32°41' W 117°14'0 0.0
2017-Sep-17 04:00N 32°41' W 117°14'0 0.0
2017-Sep-17 03:30N 32°41' W 117°14'0 0.0
2017-Sep-17 03:00N 32°41' W 117°14'0 0.0
2017-Sep-17 02:27N 32°41' W 117°14'0 0.0
2017-Sep-17 02:00N 32°41' W 117°14'0 0.0
2017-Sep-17 01:30N 32°41' W 117°14'0 0.0
2017-Sep-17 01:00N 32°41' W 117°14'0 0.0
2017-Sep-17 00:27N 32°41' W 117°14'0 0.0
2017-Sep-17 00:00N 32°41' W 117°14'0 0.0
2017-Sep-16 23:30N 32°41' W 117°14'0 0.0
2017-Sep-16 23:00N 32°41' W 117°14'0 0.0
2017-Sep-16 22:30N 32°41' W 117°14'0 0.0
2017-Sep-16 22:00N 32°41' W 117°14'0 0.0
2017-Sep-16 21:30N 32°41' W 117°14'0 0.0
2017-Sep-16 21:00N 32°41' W 117°14'0 0.0
2017-Sep-16 20:30N 32°41' W 117°14'0 0.0
2017-Sep-16 20:00N 32°41' W 117°14'0 0.0
2017-Sep-16 19:30N 32°41' W 117°14'0 0.0
2017-Sep-16 19:00N 32°41' W 117°14'0 0.0
2017-Sep-16 18:30N 32°41' W 117°14'0 0.0
2017-Sep-16 18:00N 32°41' W 117°14'0 0.0
2017-Sep-16 17:30N 32°41' W 117°14'0 0.0
2017-Sep-16 17:00N 32°41' W 117°14'0 0.0
2017-Sep-16 16:30N 32°41' W 117°14'0 0.0
2017-Sep-16 16:00N 32°41' W 117°14'0 0.0
2017-Sep-16 15:30N 32°41' W 117°14'0 0.0
2017-Sep-16 15:00N 32°41' W 117°14'0 0.0
2017-Sep-16 14:30N 32°41' W 117°14'0 0.0
2017-Sep-16 14:00N 32°41' W 117°14'0 0.0
2017-Sep-16 13:30N 32°41' W 117°14'0 0.0
2017-Sep-16 13:00N 32°41' W 117°14'0 0.0
2017-Sep-16 12:30N 32°41' W 117°14'0 0.0
2017-Sep-16 12:00N 32°41' W 117°14'0 0.0
2017-Sep-16 11:30N 32°41' W 117°14'0 0.0
2017-Sep-16 11:00N 32°41' W 117°14'0 0.0
2017-Sep-16 10:30N 32°41' W 117°14'0 0.0
2017-Sep-16 10:00N 32°41' W 117°14'0 0.0
2017-Sep-16 09:30N 32°41' W 117°14'0 0.0
2017-Sep-16 09:00N 32°41' W 117°14'0 0.0
2017-Sep-16 08:30N 32°41' W 117°14'0 0.0
2017-Sep-16 08:00N 32°41' W 117°14'0 0.0
2017-Sep-16 07:30N 32°41' W 117°14'0 0.0
2017-Sep-16 07:00N 32°41' W 117°14'0 0.0
2017-Sep-16 06:30N 32°41' W 117°14'0 0.0
2017-Sep-16 06:00N 32°41' W 117°14'0 0.0
2017-Sep-16 05:30N 32°41' W 117°14'0 0.0
2017-Sep-16 05:00N 32°41' W 117°14'0 0.0
2017-Sep-16 04:30N 32°41' W 117°14'0 0.0
2017-Sep-16 03:54N 32°41' W 117°14'0 0.0
2017-Sep-16 03:30N 32°41' W 117°14'0 0.0
2017-Sep-16 03:00N 32°41' W 117°14'0 0.0
2017-Sep-16 02:30N 32°41' W 117°14'0 0.0
2017-Sep-16 02:00N 32°41' W 117°14'0 0.0
2017-Sep-16 01:30N 32°41' W 117°14'0 0.0
2017-Sep-16 01:00N 32°41' W 117°14'0 0.0
2017-Sep-16 00:30N 32°41' W 117°14'0 0.0
2017-Sep-15 23:57N 32°41' W 117°14'0 0.0
2017-Sep-15 23:30N 32°41' W 117°14'0 0.0
2017-Sep-15 23:00N 32°41' W 117°14'0 0.0
2017-Sep-15 22:27N 32°41' W 117°14'0 0.0
2017-Sep-15 22:00N 32°41' W 117°14'0 0.0
2017-Sep-15 21:30N 32°41' W 117°14'0 0.0
2017-Sep-15 21:00N 32°41' W 117°14'0 0.0
2017-Sep-15 20:30N 32°41' W 117°14'0 0.0
2017-Sep-15 20:00N 32°41' W 117°14'0 0.0
2017-Sep-15 19:30N 32°41' W 117°14'0 0.0
2017-Sep-15 19:00N 32°41' W 117°14'0 0.0
2017-Sep-15 18:30N 32°41' W 117°14'0 0.0
2017-Sep-15 18:00N 32°41' W 117°14'0 0.0
2017-Sep-15 17:30N 32°41' W 117°14'0 0.0
2017-Sep-15 17:00N 32°41' W 117°14'2 3.8
2017-Sep-15 16:31N 32°43' W 117°13'0 0.9
2017-Sep-15 16:00N 32°43' W 117°13'0 0.2
2017-Sep-15 15:30N 32°43' W 117°13'0 0.4
2017-Sep-15 15:01N 32°43' W 117°14'0 0.0
2017-Sep-15 14:30N 32°43' W 117°14'0 0.0
2017-Sep-15 14:01N 32°43' W 117°14'0 0.0
2017-Sep-15 13:31N 32°43' W 117°14'0 0.0
2017-Sep-15 13:00N 32°43' W 117°14'2 4.0
2017-Sep-15 12:30N 32°41' W 117°14'2 4.5
2017-Sep-15 12:00N 32°39' W 117°13'612.9
2017-Sep-15 11:31N 32°39' W 117°21'510.6
2017-Sep-15 11:01N 32°40' W 117°27'510.2
2017-Sep-15 10:30N 32°41' W 117°33'510.2
2017-Sep-15 10:00N 32°41' W 117°39'510.1
2017-Sep-15 09:31N 32°42' W 117°45'510.2
2017-Sep-15 09:01N 32°43' W 117°51'510.1
2017-Sep-15 08:31N 32°44' W 117°57'510.3
2017-Sep-15 08:00N 32°44' W 118°03'510.3
2017-Sep-15 07:30N 32°45' W 118°09'510.4
2017-Sep-15 07:00N 32°46' W 118°15'610.7
2017-Sep-15 06:29N 32°47' W 118°22'5 7.8
2017-Sep-15 05:50N 32°48' W 118°28'4 6.5
2017-Sep-15 05:11N 32°51' W 118°32'0 0.4
2017-Sep-15 04:16N 32°51' W 118°32'1 4.3
2017-Sep-15 04:00N 32°52' W 118°33'4 1.6
2017-Sep-15 01:51N 32°55' W 118°36'2 3.8
2017-Sep-15 01:12N 32°53' W 118°34'3 0.1
2017-Sep-14 00:02N 32°50' W 118°34'2 1.4
2017-Sep-13 22:43N 32°49' W 118°32'1510.2
2017-Sep-13 21:13N 32°46' W 118°14'414.0
2017-Sep-13 20:55N 32°45' W 118°09'614.0
2017-Sep-13 20:30N 32°44' W 118°02'713.8
2017-Sep-13 20:00N 32°43' W 117°54'713.6
2017-Sep-13 19:30N 32°42' W 117°46'713.6
2017-Sep-13 19:00N 32°42' W 117°38'713.4
2017-Sep-13 18:30N 32°41' W 117°30'713.5
2017-Sep-13 18:00N 32°40' W 117°23'713.6
2017-Sep-13 17:30N 32°38' W 117°15'3 5.7
2017-Sep-13 16:58N 32°41' W 117°14'0 0.0
2017-Sep-13 16:28N 32°41' W 117°14'0 0.0
2017-Sep-13 15:58N 32°41' W 117°14'0 0.0
2017-Sep-13 15:28N 32°41' W 117°14'0 0.0
2017-Sep-13 14:58N 32°41' W 117°14'0 0.0
2017-Sep-13 14:28N 32°41' W 117°14'0 0.0
2017-Sep-13 13:58N 32°41' W 117°14'0 0.0
2017-Sep-13 13:28N 32°41' W 117°14'0 0.0
2017-Sep-13 12:58N 32°41' W 117°14'0 0.0
2017-Sep-13 12:28N 32°41' W 117°14'0 0.0
2017-Sep-13 11:58N 32°41' W 117°14'0 0.0
2017-Sep-13 11:25N 32°41' W 117°14'0 0.0
2017-Sep-13 10:58N 32°41' W 117°14'0 0.0
2017-Sep-13 10:28N 32°41' W 117°14'0 0.0
2017-Sep-13 09:58N 32°41' W 117°14'0 0.0
2017-Sep-13 09:28N 32°41' W 117°14'0 0.0
2017-Sep-13 08:58N 32°41' W 117°14'0 0.0
2017-Sep-13 08:28N 32°41' W 117°14'0 0.0
2017-Sep-13 07:58N 32°41' W 117°14'0 0.0
2017-Sep-13 07:28N 32°41' W 117°14'0 0.0
2017-Sep-13 06:55N 32°41' W 117°14'1 1.5
2017-Sep-13 06:30N 32°41' W 117°14'4 9.0
2017-Sep-13 06:00N 32°39' W 117°19'713.9
2017-Sep-13 05:30N 32°41' W 117°27'510.7
2017-Sep-13 05:01N 32°43' W 117°33'1 1.1
2017-Sep-13 04:31N 32°43' W 117°32'3 5.5
2017-Sep-13 04:00N 32°41' W 117°30'2 4.9
2017-Sep-13 03:30N 32°40' W 117°27'1 2.7
2017-Sep-13 03:00N 32°40' W 117°25'0 0.2
2017-Sep-13 02:30N 32°40' W 117°25'3 6.4
2017-Sep-13 02:00N 32°42' W 117°29'3 6.7
2017-Sep-13 01:30N 32°43' W 117°32'2 4.5
2017-Sep-13 01:00N 32°42' W 117°30'1 2.2
2017-Sep-13 00:30N 32°41' W 117°29'2 3.1
2017-Sep-13 00:00N 32°40' W 117°28'510.2
2017-Sep-12 23:30N 32°39' W 117°22'611.8
2017-Sep-12 23:00N 32°38' W 117°15'3 6.0
2017-Sep-12 22:30N 32°41' W 117°14'0 0.0
2017-Sep-12 21:58N 32°41' W 117°14'0 0.0
2017-Sep-12 21:28N 32°41' W 117°14'0 0.0
2017-Sep-12 20:58N 32°41' W 117°14'0 0.0
2017-Sep-12 20:28N 32°41' W 117°14'0 0.0
2017-Sep-12 19:58N 32°41' W 117°14'0 0.0
2017-Sep-12 19:28N 32°41' W 117°14'0 0.0
2017-Sep-12 18:55N 32°41' W 117°14'0 0.0
2017-Sep-12 18:28N 32°41' W 117°14'0 0.0
2017-Sep-12 17:58N 32°41' W 117°14'0 0.0
2017-Sep-12 17:28N 32°41' W 117°14'0 0.0
2017-Sep-12 16:58N 32°41' W 117°14'0 0.0
2017-Sep-12 16:28N 32°41' W 117°14'0 0.0
2017-Sep-12 15:58N 32°41' W 117°14'0 0.0
2017-Sep-12 15:28N 32°41' W 117°14'0 0.0
2017-Sep-12 14:58N 32°41' W 117°14'0 0.0
2017-Sep-12 14:28N 32°41' W 117°14'0 0.0
2017-Sep-12 13:52N 32°41' W 117°14'0 0.0
2017-Sep-12 13:28N 32°41' W 117°14'0 0.0
2017-Sep-12 12:58N 32°41' W 117°14'0 0.0
2017-Sep-12 12:28N 32°41' W 117°14'0 0.0
2017-Sep-12 11:55N 32°41' W 117°14'0 0.0
2017-Sep-12 11:25N 32°41' W 117°14'0 0.0
2017-Sep-12 10:58N 32°41' W 117°14'0 0.0
2017-Sep-12 10:25N 32°41' W 117°14'0 0.0
2017-Sep-12 09:58N 32°41' W 117°14'0 0.0
2017-Sep-12 09:25N 32°41' W 117°14'0 0.0
2017-Sep-12 08:58N 32°41' W 117°14'0 0.0
2017-Sep-12 08:28N 32°41' W 117°14'0 0.0
2017-Sep-12 07:58N 32°41' W 117°14'0 0.0
2017-Sep-12 07:28N 32°41' W 117°14'0 0.0
2017-Sep-12 06:58N 32°41' W 117°14'0 0.0
2017-Sep-12 06:28N 32°41' W 117°14'0 0.0
2017-Sep-12 05:55N 32°41' W 117°14'0 0.0
2017-Sep-12 05:25N 32°41' W 117°14'0 0.0
2017-Sep-12 04:58N 32°41' W 117°14'0 0.0
2017-Sep-12 04:28N 32°41' W 117°14'0 0.0
2017-Sep-12 03:58N 32°41' W 117°14'0 0.0
2017-Sep-12 03:25N 32°41' W 117°14'0 0.0
2017-Sep-12 02:55N 32°41' W 117°14'0 0.0
2017-Sep-12 02:28N 32°41' W 117°14'0 0.0
2017-Sep-12 01:58N 32°41' W 117°14'0 0.0
2017-Sep-12 01:25N 32°41' W 117°14'0 0.0
2017-Sep-12 00:58N 32°41' W 117°14'0 0.0
2017-Sep-12 00:28N 32°41' W 117°14'0 0.0
2017-Sep-11 23:58N 32°41' W 117°14'0 0.0
2017-Sep-11 23:28N 32°41' W 117°14'0 0.0
2017-Sep-11 22:58N 32°41' W 117°14'0 0.0
2017-Sep-11 22:28N 32°41' W 117°14'0 0.0
2017-Sep-11 21:55N 32°41' W 117°14'0 0.0
2017-Sep-11 21:28N 32°41' W 117°14'0 0.0
2017-Sep-11 20:55N 32°41' W 117°14'0 0.0
2017-Sep-11 20:25N 32°41' W 117°14'0 0.0
2017-Sep-11 19:58N 32°41' W 117°14'0 0.0
2017-Sep-11 19:28N 32°41' W 117°14'0 0.0
2017-Sep-11 18:58N 32°41' W 117°14'0 0.0
2017-Sep-11 18:28N 32°41' W 117°14'0 0.0
2017-Sep-11 17:58N 32°41' W 117°14'0 0.0
2017-Sep-11 17:28N 32°41' W 117°14'0 0.0
2017-Sep-11 16:49N 32°41' W 117°14'0 0.0
2017-Sep-11 16:28N 32°41' W 117°14'0 0.0
2017-Sep-11 15:58N 32°41' W 117°14'0 0.0
2017-Sep-11 15:28N 32°41' W 117°14'0 0.0
2017-Sep-11 14:58N 32°41' W 117°14'0 0.0
2017-Sep-11 14:28N 32°41' W 117°14'0 0.0
2017-Sep-11 13:58N 32°41' W 117°14'0 0.0
2017-Sep-11 13:25N 32°41' W 117°14'0 0.0
2017-Sep-11 12:58N 32°41' W 117°14'0 0.0
2017-Sep-11 12:25N 32°41' W 117°14'0 0.0
2017-Sep-11 11:55N 32°41' W 117°14'0 0.0
2017-Sep-11 11:25N 32°41' W 117°14'0 0.0
2017-Sep-11 10:58N 32°41' W 117°14'0 0.0
2017-Sep-11 10:25N 32°41' W 117°14'0 0.0
2017-Sep-11 09:49N 32°41' W 117°14'0 0.0
2017-Sep-11 08:22N 32°41' W 117°14'0 0.0
2017-Sep-11 07:58N 32°41' W 117°14'0 0.0
2017-Sep-11 07:22N 32°41' W 117°14'0 0.0
2017-Sep-11 06:52N 32°41' W 117°14'0 0.0
2017-Sep-11 06:28N 32°41' W 117°14'0 0.0
2017-Sep-11 04:16N 32°41' W 117°14'0 0.2
2017-Sep-11 04:00N 32°41' W 117°14'  
Track history (hours):
 
Tides and Currents Weather Stations Pressure Air Temp Water Temp Dewpoint Dewpoint Depression Visibility Wind Speed Wind Dir Waves Ship Positions

Rsc-4

Last reported at 2017-Sep-21 03:52 UTC. Time now 2017-Sep-21 12:13 UTC.
Position N 33°01' W 118°33'.

Length 35 m; draft 2.5 m.

Type: Military. MMSI: 369970764.

Date/timePositionNaut miles runAvg speedWind from/ knotsBaromVisibWave heightAir tempDewpointWater temp
2017-Sep-21 03:52N 33°01' W 118°33'8 0.3
2017-Sep-20 01:41N 33°01' W 118°43'4 3.8
2017-Sep-20 00:35N 32°57' W 118°42'2 4.0
2017-Sep-20 00:07N 32°57' W 118°44'0 4.3
2017-Sep-20 00:00N 32°57' W 118°44'1 2.1
2017-Sep-19 23:20N 32°57' W 118°43'813.7
2017-Sep-19 22:43N 33°05' W 118°39'2310.5
2017-Sep-19 20:33N 32°55' W 118°15'114.7
2017-Sep-19 20:30N 32°54' W 118°14'714.5
2017-Sep-19 20:00N 32°52' W 118°06'713.9
2017-Sep-19 19:31N 32°50' W 117°58'714.3
2017-Sep-19 19:00N 32°47' W 117°50'714.3
2017-Sep-19 18:30N 32°44' W 117°43'714.2
2017-Sep-19 18:00N 32°42' W 117°35'714.3
2017-Sep-19 17:30N 32°39' W 117°27'713.8
2017-Sep-19 17:01N 32°37' W 117°19'5 9.5
2017-Sep-19 16:30N 32°40' W 117°14'2 3.4
2017-Sep-19 15:59N 32°41' W 117°14'0 0.0
2017-Sep-19 15:29N 32°41' W 117°14'0 0.0
2017-Sep-19 14:59N 32°41' W 117°14'0 0.0
2017-Sep-19 14:29N 32°41' W 117°14'0 0.0
2017-Sep-19 13:59N 32°41' W 117°14'0 0.0
2017-Sep-19 13:29N 32°41' W 117°14'0 0.0
2017-Sep-19 12:59N 32°41' W 117°14'0 0.0
2017-Sep-19 12:29N 32°41' W 117°14'0 0.0
2017-Sep-19 11:59N 32°41' W 117°14'0 0.0
2017-Sep-19 11:29N 32°41' W 117°14'0 0.0
2017-Sep-19 10:56N 32°41' W 117°14'0 0.0
2017-Sep-19 10:29N 32°41' W 117°14'0 0.0
2017-Sep-19 09:59N 32°41' W 117°14'0 0.0
2017-Sep-19 09:29N 32°41' W 117°14'0 0.0
2017-Sep-19 08:59N 32°41' W 117°14'0 0.0
2017-Sep-19 08:29N 32°41' W 117°14'0 0.0
2017-Sep-19 07:59N 32°41' W 117°14'0 0.0
2017-Sep-19 07:29N 32°41' W 117°14'0 0.0
2017-Sep-19 06:59N 32°41' W 117°14'0 0.0
2017-Sep-19 06:29N 32°41' W 117°14'0 0.0
2017-Sep-19 05:59N 32°41' W 117°14'0 0.0
2017-Sep-19 05:29N 32°41' W 117°14'0 0.0
2017-Sep-19 04:59N 32°41' W 117°14'0 0.0
2017-Sep-19 04:29N 32°41' W 117°14'0 0.0
2017-Sep-19 03:59N 32°41' W 117°14'0 0.0
2017-Sep-19 03:29N 32°41' W 117°14'0 0.0
2017-Sep-19 02:59N 32°41' W 117°14'0 0.0
2017-Sep-19 02:29N 32°41' W 117°14'0 0.0
2017-Sep-19 01:59N 32°41' W 117°14'0 0.0
2017-Sep-19 01:29N 32°41' W 117°14'0 0.0
2017-Sep-19 00:59N 32°41' W 117°14'0 0.0
2017-Sep-19 00:29N 32°41' W 117°14'0 0.0
2017-Sep-18 23:59N 32°41' W 117°14'0 0.0
2017-Sep-18 23:26N 32°41' W 117°14'0 0.0
2017-Sep-18 22:59N 32°41' W 117°14'0 0.0
2017-Sep-18 22:29N 32°41' W 117°14'0 0.0
2017-Sep-18 21:59N 32°41' W 117°14'0 0.0
2017-Sep-18 21:29N 32°41' W 117°14'0 0.0
2017-Sep-18 20:59N 32°41' W 117°14'0 0.0
2017-Sep-18 20:29N 32°41' W 117°14'0 0.0
2017-Sep-18 19:59N 32°41' W 117°14'0 0.0
2017-Sep-18 19:26N 32°41' W 117°14'0 0.0
2017-Sep-18 18:59N 32°41' W 117°14'0 0.0
2017-Sep-18 18:26N 32°41' W 117°14'0 0.0
2017-Sep-18 17:59N 32°41' W 117°14'0 0.0
2017-Sep-18 17:29N 32°41' W 117°14'0 0.0
2017-Sep-18 16:59N 32°41' W 117°14'0 0.0
2017-Sep-18 16:29N 32°41' W 117°14'0 0.0
2017-Sep-18 15:59N 32°41' W 117°14'0 0.0
2017-Sep-18 15:29N 32°41' W 117°14'0 0.0
2017-Sep-18 14:59N 32°41' W 117°14'0 0.0
2017-Sep-18 14:29N 32°41' W 117°14'0 0.0
2017-Sep-18 13:59N 32°41' W 117°14'0 0.1
2017-Sep-18 13:31N 32°41' W 117°14'0 0.1
2017-Sep-18 13:00N 32°41' W 117°14'0 0.0
2017-Sep-18 12:30N 32°41' W 117°14'0 0.0
2017-Sep-18 12:00N 32°41' W 117°14'0 0.0
2017-Sep-18 11:27N 32°41' W 117°14'0 0.0
2017-Sep-18 11:00N 32°41' W 117°14'0 0.0
2017-Sep-18 10:30N 32°41' W 117°14'0 0.0
2017-Sep-18 10:00N 32°41' W 117°14'0 0.0
2017-Sep-18 09:30N 32°41' W 117°14'0 0.0
2017-Sep-18 09:00N 32°41' W 117°14'0 0.0
2017-Sep-18 08:27N 32°41' W 117°14'0 0.0
2017-Sep-18 08:00N 32°41' W 117°14'0 0.0
2017-Sep-18 07:30N 32°41' W 117°14'0 0.0
2017-Sep-18 07:00N 32°41' W 117°14'0 0.0
2017-Sep-18 06:30N 32°41' W 117°14'0 0.0
2017-Sep-18 06:00N 32°41' W 117°14'0 0.0
2017-Sep-18 05:30N 32°41' W 117°14'0 0.0
2017-Sep-18 05:00N 32°41' W 117°14'0 0.0
2017-Sep-18 04:30N 32°41' W 117°14'0 0.0
2017-Sep-18 04:00N 32°41' W 117°14'0 0.0
2017-Sep-18 03:30N 32°41' W 117°14'0 0.0
2017-Sep-18 03:00N 32°41' W 117°14'0 0.0
2017-Sep-18 02:30N 32°41' W 117°14'0 0.0
2017-Sep-18 02:00N 32°41' W 117°14'0 0.0
2017-Sep-18 01:30N 32°41' W 117°14'0 0.0
2017-Sep-18 00:57N 32°41' W 117°14'0 0.0
2017-Sep-18 00:30N 32°41' W 117°14'0 0.0
2017-Sep-17 23:57N 32°41' W 117°14'0 0.0
2017-Sep-17 23:30N 32°41' W 117°14'0 0.0
2017-Sep-17 23:00N 32°41' W 117°14'0 0.0
2017-Sep-17 22:27N 32°41' W 117°14'0 0.0
2017-Sep-17 22:00N 32°41' W 117°14'0 0.0
2017-Sep-17 21:30N 32°41' W 117°14'0 0.0
2017-Sep-17 21:00N 32°41' W 117°14'0 0.0
2017-Sep-17 20:30N 32°41' W 117°14'0 0.0
2017-Sep-17 20:00N 32°41' W 117°14'0 0.0
2017-Sep-17 19:30N 32°41' W 117°14'0 0.0
2017-Sep-17 19:00N 32°41' W 117°14'0 0.0
2017-Sep-17 18:24N 32°41' W 117°14'0 0.0
2017-Sep-17 18:00N 32°41' W 117°14'0 0.0
2017-Sep-17 17:30N 32°41' W 117°14'0 0.0
2017-Sep-17 17:00N 32°41' W 117°14'0 0.0
2017-Sep-17 16:30N 32°41' W 117°14'0 0.0
2017-Sep-17 15:57N 32°41' W 117°14'0 0.0
2017-Sep-17 15:30N 32°41' W 117°14'0 0.0
2017-Sep-17 15:00N 32°41' W 117°14'0 0.0
2017-Sep-17 14:30N 32°41' W 117°14'0 0.0
2017-Sep-17 14:00N 32°41' W 117°14'0 0.0
2017-Sep-17 13:30N 32°41' W 117°14'0 0.0
2017-Sep-17 13:00N 32°41' W 117°14'0 0.0
2017-Sep-17 12:30N 32°41' W 117°14'0 0.0
2017-Sep-17 11:57N 32°41' W 117°14'0 0.0
2017-Sep-17 11:30N 32°41' W 117°14'0 0.0
2017-Sep-17 11:00N 32°41' W 117°14'0 0.0
2017-Sep-17 10:30N 32°41' W 117°14'0 0.0
2017-Sep-17 10:00N 32°41' W 117°14'0 0.0
2017-Sep-17 09:27N 32°41' W 117°14'0 0.0
2017-Sep-17 09:00N 32°41' W 117°14'0 0.0
2017-Sep-17 08:30N 32°41' W 117°14'0 0.0
2017-Sep-17 08:00N 32°41' W 117°14'0 0.0
2017-Sep-17 07:30N 32°41' W 117°14'0 0.0
2017-Sep-17 07:00N 32°41' W 117°14'0 0.0
2017-Sep-17 06:30N 32°41' W 117°14'0 0.0
2017-Sep-17 06:00N 32°41' W 117°14'0 0.0
2017-Sep-17 05:30N 32°41' W 117°14'0 0.0
2017-Sep-17 05:00N 32°41' W 117°14'0 0.0
2017-Sep-17 04:30N 32°41' W 117°14'0 0.0
2017-Sep-17 04:00N 32°41' W 117°14'0 0.0
2017-Sep-17 03:30N 32°41' W 117°14'0 0.0
2017-Sep-17 03:00N 32°41' W 117°14'0 0.0
2017-Sep-17 02:27N 32°41' W 117°14'0 0.0
2017-Sep-17 02:00N 32°41' W 117°14'0 0.0
2017-Sep-17 01:30N 32°41' W 117°14'0 0.0
2017-Sep-17 01:00N 32°41' W 117°14'0 0.0
2017-Sep-17 00:27N 32°41' W 117°14'0 0.0
2017-Sep-17 00:00N 32°41' W 117°14'0 0.0
2017-Sep-16 23:30N 32°41' W 117°14'0 0.0
2017-Sep-16 23:00N 32°41' W 117°14'0 0.0
2017-Sep-16 22:30N 32°41' W 117°14'0 0.0
2017-Sep-16 22:00N 32°41' W 117°14'0 0.0
2017-Sep-16 21:30N 32°41' W 117°14'0 0.0
2017-Sep-16 21:00N 32°41' W 117°14'0 0.0
2017-Sep-16 20:30N 32°41' W 117°14'0 0.0
2017-Sep-16 20:00N 32°41' W 117°14'0 0.0
2017-Sep-16 19:30N 32°41' W 117°14'0 0.0
2017-Sep-16 19:00N 32°41' W 117°14'0 0.0
2017-Sep-16 18:30N 32°41' W 117°14'0 0.0
2017-Sep-16 18:00N 32°41' W 117°14'0 0.0
2017-Sep-16 17:30N 32°41' W 117°14'0 0.0
2017-Sep-16 17:00N 32°41' W 117°14'0 0.0
2017-Sep-16 16:30N 32°41' W 117°14'0 0.0
2017-Sep-16 16:00N 32°41' W 117°14'0 0.0
2017-Sep-16 15:30N 32°41' W 117°14'0 0.0
2017-Sep-16 15:00N 32°41' W 117°14'0 0.0
2017-Sep-16 14:30N 32°41' W 117°14'0 0.0
2017-Sep-16 14:00N 32°41' W 117°14'0 0.0
2017-Sep-16 13:30N 32°41' W 117°14'0 0.0
2017-Sep-16 13:00N 32°41' W 117°14'0 0.0
2017-Sep-16 12:30N 32°41' W 117°14'0 0.0
2017-Sep-16 12:00N 32°41' W 117°14'0 0.0
2017-Sep-16 11:30N 32°41' W 117°14'0 0.0
2017-Sep-16 11:00N 32°41' W 117°14'0 0.0
2017-Sep-16 10:30N 32°41' W 117°14'0 0.0
2017-Sep-16 10:00N 32°41' W 117°14'0 0.0
2017-Sep-16 09:30N 32°41' W 117°14'0 0.0
2017-Sep-16 09:00N 32°41' W 117°14'0 0.0
2017-Sep-16 08:30N 32°41' W 117°14'0 0.0
2017-Sep-16 08:00N 32°41' W 117°14'0 0.0
2017-Sep-16 07:30N 32°41' W 117°14'0 0.0
2017-Sep-16 07:00N 32°41' W 117°14'0 0.0
2017-Sep-16 06:30N 32°41' W 117°14'0 0.0
2017-Sep-16 06:00N 32°41' W 117°14'0 0.0
2017-Sep-16 05:30N 32°41' W 117°14'0 0.0
2017-Sep-16 05:00N 32°41' W 117°14'0 0.0
2017-Sep-16 04:30N 32°41' W 117°14'0 0.0
2017-Sep-16 03:54N 32°41' W 117°14'0 0.0
2017-Sep-16 03:30N 32°41' W 117°14'0 0.0
2017-Sep-16 03:00N 32°41' W 117°14'0 0.0
2017-Sep-16 02:30N 32°41' W 117°14'0 0.0
2017-Sep-16 02:00N 32°41' W 117°14'0 0.0
2017-Sep-16 01:30N 32°41' W 117°14'0 0.0
2017-Sep-16 01:00N 32°41' W 117°14'0 0.0
2017-Sep-16 00:30N 32°41' W 117°14'0 0.0
2017-Sep-15 23:57N 32°41' W 117°14'0 0.0
2017-Sep-15 23:30N 32°41' W 117°14'0 0.0
2017-Sep-15 23:00N 32°41' W 117°14'0 0.0
2017-Sep-15 22:27N 32°41' W 117°14'0 0.0
2017-Sep-15 22:00N 32°41' W 117°14'0 0.0
2017-Sep-15 21:30N 32°41' W 117°14'0 0.0
2017-Sep-15 21:00N 32°41' W 117°14'0 0.0
2017-Sep-15 20:30N 32°41' W 117°14'0 0.0
2017-Sep-15 20:00N 32°41' W 117°14'0 0.0
2017-Sep-15 19:30N 32°41' W 117°14'0 0.0
2017-Sep-15 19:00N 32°41' W 117°14'0 0.0
2017-Sep-15 18:30N 32°41' W 117°14'0 0.0
2017-Sep-15 18:00N 32°41' W 117°14'0 0.0
2017-Sep-15 17:30N 32°41' W 117°14'0 0.0
2017-Sep-15 17:00N 32°41' W 117°14'2 3.8
2017-Sep-15 16:31N 32°43' W 117°13'0 0.9
2017-Sep-15 16:00N 32°43' W 117°13'0 0.2
2017-Sep-15 15:30N 32°43' W 117°13'0 0.4
2017-Sep-15 15:01N 32°43' W 117°14'0 0.0
2017-Sep-15 14:30N 32°43' W 117°14'0 0.0
2017-Sep-15 14:01N 32°43' W 117°14'0 0.0
2017-Sep-15 13:31N 32°43' W 117°14'0 0.0
2017-Sep-15 13:00N 32°43' W 117°14'2 4.0
2017-Sep-15 12:30N 32°41' W 117°14'2 4.5
2017-Sep-15 12:00N 32°39' W 117°13'612.9
2017-Sep-15 11:31N 32°39' W 117°21'510.6
2017-Sep-15 11:01N 32°40' W 117°27'510.2
2017-Sep-15 10:30N 32°41' W 117°33'510.2
2017-Sep-15 10:00N 32°41' W 117°39'510.1
2017-Sep-15 09:31N 32°42' W 117°45'510.2
2017-Sep-15 09:01N 32°43' W 117°51'510.1
2017-Sep-15 08:31N 32°44' W 117°57'510.3
2017-Sep-15 08:00N 32°44' W 118°03'510.3
2017-Sep-15 07:30N 32°45' W 118°09'510.4
2017-Sep-15 07:00N 32°46' W 118°15'610.7
2017-Sep-15 06:29N 32°47' W 118°22'5 7.8
2017-Sep-15 05:50N 32°48' W 118°28'4 6.5
2017-Sep-15 05:11N 32°51' W 118°32'0 0.4
2017-Sep-15 04:16N 32°51' W 118°32'1 4.3
2017-Sep-15 04:00N 32°52' W 118°33'4 1.6
2017-Sep-15 01:51N 32°55' W 118°36'2 3.8
2017-Sep-15 01:12N 32°53' W 118°34'3 0.1
2017-Sep-14 00:02N 32°50' W 118°34'2 1.4
2017-Sep-13 22:43N 32°49' W 118°32'1510.2
2017-Sep-13 21:13N 32°46' W 118°14'414.0
2017-Sep-13 20:55N 32°45' W 118°09'614.0
2017-Sep-13 20:30N 32°44' W 118°02'713.8
2017-Sep-13 20:00N 32°43' W 117°54'713.6
2017-Sep-13 19:30N 32°42' W 117°46'713.6
2017-Sep-13 19:00N 32°42' W 117°38'713.4
2017-Sep-13 18:30N 32°41' W 117°30'713.5
2017-Sep-13 18:00N 32°40' W 117°23'713.6
2017-Sep-13 17:30N 32°38' W 117°15'3 5.7
2017-Sep-13 16:58N 32°41' W 117°14'0 0.0
2017-Sep-13 16:28N 32°41' W 117°14'0 0.0
2017-Sep-13 15:58N 32°41' W 117°14'0 0.0
2017-Sep-13 15:28N 32°41' W 117°14'0 0.0
2017-Sep-13 14:58N 32°41' W 117°14'0 0.0
2017-Sep-13 14:28N 32°41' W 117°14'0 0.0
2017-Sep-13 13:58N 32°41' W 117°14'0 0.0
2017-Sep-13 13:28N 32°41' W 117°14'0 0.0
2017-Sep-13 12:58N 32°41' W 117°14'0 0.0
2017-Sep-13 12:28N 32°41' W 117°14'0 0.0
2017-Sep-13 11:58N 32°41' W 117°14'0 0.0
2017-Sep-13 11:25N 32°41' W 117°14'0 0.0
2017-Sep-13 10:58N 32°41' W 117°14'0 0.0
2017-Sep-13 10:28N 32°41' W 117°14'0 0.0
2017-Sep-13 09:58N 32°41' W 117°14'0 0.0
2017-Sep-13 09:28N 32°41' W 117°14'0 0.0
2017-Sep-13 08:58N 32°41' W 117°14'0 0.0
2017-Sep-13 08:28N 32°41' W 117°14'0 0.0
2017-Sep-13 07:58N 32°41' W 117°14'0 0.0
2017-Sep-13 07:28N 32°41' W 117°14'0 0.0
2017-Sep-13 06:55N 32°41' W 117°14'1 1.5
2017-Sep-13 06:30N 32°41' W 117°14'4 9.0
2017-Sep-13 06:00N 32°39' W 117°19'713.9
2017-Sep-13 05:30N 32°41' W 117°27'510.7
2017-Sep-13 05:01N 32°43' W 117°33'1 1.1
2017-Sep-13 04:31N 32°43' W 117°32'3 5.5
2017-Sep-13 04:00N 32°41' W 117°30'2 4.9
2017-Sep-13 03:30N 32°40' W 117°27'1 2.7
2017-Sep-13 03:00N 32°40' W 117°25'0 0.2
2017-Sep-13 02:30N 32°40' W 117°25'3 6.4
2017-Sep-13 02:00N 32°42' W 117°29'3 6.7
2017-Sep-13 01:30N 32°43' W 117°32'2 4.5
2017-Sep-13 01:00N 32°42' W 117°30'1 2.2
2017-Sep-13 00:30N 32°41' W 117°29'2 3.1
2017-Sep-13 00:00N 32°40' W 117°28'510.2
2017-Sep-12 23:30N 32°39' W 117°22'611.8
2017-Sep-12 23:00N 32°38' W 117°15'3 6.0
2017-Sep-12 22:30N 32°41' W 117°14'0 0.0
2017-Sep-12 21:58N 32°41' W 117°14'0 0.0
2017-Sep-12 21:28N 32°41' W 117°14'0 0.0
2017-Sep-12 20:58N 32°41' W 117°14'0 0.0
2017-Sep-12 20:28N 32°41' W 117°14'0 0.0
2017-Sep-12 19:58N 32°41' W 117°14'0 0.0
2017-Sep-12 19:28N 32°41' W 117°14'0 0.0
2017-Sep-12 18:55N 32°41' W 117°14'0 0.0
2017-Sep-12 18:28N 32°41' W 117°14'0 0.0
2017-Sep-12 17:58N 32°41' W 117°14'0 0.0
2017-Sep-12 17:28N 32°41' W 117°14'0 0.0
2017-Sep-12 16:58N 32°41' W 117°14'0 0.0
2017-Sep-12 16:28N 32°41' W 117°14'0 0.0
2017-Sep-12 15:58N 32°41' W 117°14'0 0.0
2017-Sep-12 15:28N 32°41' W 117°14'0 0.0
2017-Sep-12 14:58N 32°41' W 117°14'0 0.0
2017-Sep-12 14:28N 32°41' W 117°14'0 0.0
2017-Sep-12 13:52N 32°41' W 117°14'0 0.0
2017-Sep-12 13:28N 32°41' W 117°14'0 0.0
2017-Sep-12 12:58N 32°41' W 117°14'0 0.0
2017-Sep-12 12:28N 32°41' W 117°14'0 0.0
2017-Sep-12 11:55N 32°41' W 117°14'0 0.0
2017-Sep-12 11:25N 32°41' W 117°14'0 0.0
2017-Sep-12 10:58N 32°41' W 117°14'0 0.0
2017-Sep-12 10:25N 32°41' W 117°14'0 0.0
2017-Sep-12 09:58N 32°41' W 117°14'0 0.0
2017-Sep-12 09:25N 32°41' W 117°14'0 0.0
2017-Sep-12 08:58N 32°41' W 117°14'0 0.0
2017-Sep-12 08:28N 32°41' W 117°14'0 0.0
2017-Sep-12 07:58N 32°41' W 117°14'0 0.0
2017-Sep-12 07:28N 32°41' W 117°14'0 0.0
2017-Sep-12 06:58N 32°41' W 117°14'0 0.0
2017-Sep-12 06:28N 32°41' W 117°14'0 0.0
2017-Sep-12 05:55N 32°41' W 117°14'0 0.0
2017-Sep-12 05:25N 32°41' W 117°14'0 0.0
2017-Sep-12 04:58N 32°41' W 117°14'0 0.0
2017-Sep-12 04:28N 32°41' W 117°14'0 0.0
2017-Sep-12 03:58N 32°41' W 117°14'0 0.0
2017-Sep-12 03:25N 32°41' W 117°14'0 0.0
2017-Sep-12 02:55N 32°41' W 117°14'0 0.0
2017-Sep-12 02:28N 32°41' W 117°14'0 0.0
2017-Sep-12 01:58N 32°41' W 117°14'0 0.0
2017-Sep-12 01:25N 32°41' W 117°14'0 0.0
2017-Sep-12 00:58N 32°41' W 117°14'0 0.0
2017-Sep-12 00:28N 32°41' W 117°14'0 0.0
2017-Sep-11 23:58N 32°41' W 117°14'0 0.0
2017-Sep-11 23:28N 32°41' W 117°14'0 0.0
2017-Sep-11 22:58N 32°41' W 117°14'0 0.0
2017-Sep-11 22:28N 32°41' W 117°14'0 0.0
2017-Sep-11 21:55N 32°41' W 117°14'0 0.0
2017-Sep-11 21:28N 32°41' W 117°14'0 0.0
2017-Sep-11 20:55N 32°41' W 117°14'0 0.0
2017-Sep-11 20:25N 32°41' W 117°14'0 0.0
2017-Sep-11 19:58N 32°41' W 117°14'0 0.0
2017-Sep-11 19:28N 32°41' W 117°14'0 0.0
2017-Sep-11 18:58N 32°41' W 117°14'0 0.0
2017-Sep-11 18:28N 32°41' W 117°14'0 0.0
2017-Sep-11 17:58N 32°41' W 117°14'0 0.0
2017-Sep-11 17:28N 32°41' W 117°14'0 0.0
2017-Sep-11 16:49N 32°41' W 117°14'0 0.0
2017-Sep-11 16:28N 32°41' W 117°14'0 0.0
2017-Sep-11 15:58N 32°41' W 117°14'0 0.0
2017-Sep-11 15:28N 32°41' W 117°14'0 0.0
2017-Sep-11 14:58N 32°41' W 117°14'0 0.0
2017-Sep-11 14:28N 32°41' W 117°14'0 0.0
2017-Sep-11 13:58N 32°41' W 117°14'0 0.0
2017-Sep-11 13:25N 32°41' W 117°14'0 0.0
2017-Sep-11 12:58N 32°41' W 117°14'0 0.0
2017-Sep-11 12:25N 32°41' W 117°14'0 0.0
2017-Sep-11 11:55N 32°41' W 117°14'0 0.0
2017-Sep-11 11:25N 32°41' W 117°14'0 0.0
2017-Sep-11 10:58N 32°41' W 117°14'0 0.0
2017-Sep-11 10:25N 32°41' W 117°14'0 0.0
2017-Sep-11 09:49N 32°41' W 117°14'0 0.0
2017-Sep-11 08:22N 32°41' W 117°14'0 0.0
2017-Sep-11 07:58N 32°41' W 117°14'0 0.0
2017-Sep-11 07:22N 32°41' W 117°14'0 0.0
2017-Sep-11 06:52N 32°41' W 117°14'0 0.0
2017-Sep-11 06:28N 32°41' W 117°14'0 0.0
2017-Sep-11 04:16N 32°41' W 117°14'0 0.2
2017-Sep-11 04:00N 32°41' W 117°14'  

Dump ship's entire track history